createdAt,value
2018-01-14T00:01:29.791Z,3.67
2018-01-14T00:03:58.113Z,3.68
2018-01-14T00:06:27.740Z,3.73
2018-01-14T00:08:56.830Z,3.79
2018-01-14T00:11:25.932Z,3.69
2018-01-14T00:13:54.250Z,3.62
2018-01-14T00:16:22.569Z,3.80
2018-01-14T00:18:50.918Z,3.81
2018-01-14T00:21:19.264Z,3.82
2018-01-14T00:23:47.608Z,3.48
2018-01-14T00:26:17.449Z,3.45
2018-01-14T00:28:46.582Z,3.44
2018-01-14T00:31:14.918Z,3.30
2018-01-14T00:33:44.338Z,3.44
2018-01-14T00:36:12.668Z,3.43
2018-01-14T00:38:41.035Z,3.56
2018-01-14T00:41:09.372Z,3.20
2018-01-14T00:43:37.723Z,3.46
2018-01-14T00:46:06.050Z,3.42
2018-01-14T00:48:34.390Z,3.58
2018-01-14T00:51:02.731Z,3.68
2018-01-14T00:53:31.077Z,3.53
2018-01-14T00:55:59.424Z,3.29
2018-01-14T00:58:27.746Z,3.68
2018-01-14T01:00:56.112Z,3.54
2018-01-14T01:03:24.448Z,3.70
2018-01-14T01:05:52.777Z,3.61
2018-01-14T01:08:21.117Z,3.62
2018-01-14T01:10:49.456Z,3.46
2018-01-14T01:13:17.775Z,3.41
2018-01-14T01:15:46.114Z,3.39
2018-01-14T01:18:14.460Z,3.54
2018-01-14T01:20:42.808Z,3.43
2018-01-14T01:23:11.137Z,3.18
2018-01-14T01:25:40.252Z,3.28
2018-01-14T01:28:08.588Z,3.29
2018-01-14T01:30:36.943Z,3.39
2018-01-14T01:33:05.262Z,3.37
2018-01-14T01:35:33.594Z,3.41
2018-01-14T01:38:01.936Z,3.47
2018-01-14T01:40:31.004Z,3.36
2018-01-14T01:42:59.370Z,3.31
2018-01-14T01:45:27.694Z,3.42
2018-01-14T01:47:56.032Z,3.40
2018-01-14T01:50:24.373Z,3.20
2018-01-14T01:52:52.691Z,3.17
2018-01-14T01:55:21.026Z,3.34
2018-01-14T01:57:49.449Z,3.47
2018-01-14T02:00:17.792Z,3.61
2018-01-14T02:02:46.128Z,3.72
2018-01-14T02:05:15.250Z,3.53
2018-01-14T02:07:43.592Z,3.43
2018-01-14T02:10:11.948Z,3.51
2018-01-14T02:12:40.290Z,3.25
2018-01-14T02:15:08.615Z,3.21
2018-01-14T02:17:36.945Z,3.30
2018-01-14T02:20:05.269Z,3.37
2018-01-14T02:22:33.604Z,3.51
2018-01-14T02:25:01.941Z,3.47
2018-01-14T02:27:30.331Z,3.52
2018-01-14T02:29:58.661Z,3.58
2018-01-14T02:32:26.982Z,3.42
2018-01-14T02:34:56.083Z,3.57
2018-01-14T02:37:24.414Z,3.20
2018-01-14T02:39:52.757Z,3.44
2018-01-14T02:42:21.082Z,3.41
2018-01-14T02:44:49.424Z,3.49
2018-01-14T02:47:17.744Z,3.58
2018-01-14T02:49:46.101Z,3.48
2018-01-14T02:52:14.446Z,3.50
2018-01-14T02:54:42.787Z,3.55
2018-01-14T02:57:11.137Z,3.58
2018-01-14T02:59:39.472Z,3.66
2018-01-14T03:02:07.811Z,3.45
2018-01-14T03:04:36.138Z,3.50
2018-01-14T03:07:04.469Z,3.15
2018-01-14T03:09:32.816Z,3.28
2018-01-14T03:12:01.137Z,2.90
2018-01-14T03:14:29.477Z,2.61
2018-01-14T03:16:57.816Z,2.46
2018-01-14T03:19:27.217Z,2.74
2018-01-14T03:21:55.551Z,2.81
2018-01-14T03:24:23.883Z,2.80
2018-01-14T03:26:52.219Z,2.73
2018-01-14T03:29:21.307Z,3.01
2018-01-14T03:31:50.153Z,2.58
2018-01-14T03:34:18.491Z,2.51
2018-01-14T03:36:46.832Z,2.57
2018-01-14T03:39:15.200Z,2.69
2018-01-14T03:41:43.596Z,2.69
2018-01-14T03:44:11.940Z,2.50
2018-01-14T03:46:40.268Z,2.50
2018-01-14T03:49:08.600Z,2.59
2018-01-14T03:51:36.939Z,2.63
2018-01-14T03:54:06.055Z,2.74
2018-01-14T03:56:34.384Z,2.69
2018-01-14T03:59:02.724Z,2.42
2018-01-14T04:01:31.041Z,2.65
2018-01-14T04:03:59.372Z,2.62
2018-01-14T04:06:27.691Z,2.87
2018-01-14T04:08:56.007Z,2.95
2018-01-14T04:11:24.334Z,2.72
2018-01-14T04:13:53.368Z,2.82
2018-01-14T04:16:22.727Z,2.83
2018-01-14T04:18:51.057Z,2.83
2018-01-14T04:21:19.388Z,2.89
2018-01-14T04:23:47.730Z,2.89
2018-01-14T04:26:16.076Z,2.79
2018-01-14T04:28:46.138Z,2.59
2018-01-14T04:31:14.472Z,2.25
2018-01-14T04:33:43.902Z,2.22
2018-01-14T04:36:12.231Z,2.46
2018-01-14T04:38:41.729Z,2.47
2018-01-14T04:41:10.058Z,2.15
2018-01-14T04:43:38.392Z,2.32
2018-01-14T04:46:06.726Z,2.48
2018-01-14T04:48:35.055Z,2.51
2018-01-14T04:51:03.401Z,2.47
2018-01-14T04:53:31.757Z,2.42
2018-01-14T04:56:00.093Z,2.21
2018-01-14T04:58:28.422Z,2.33
2018-01-14T05:00:56.761Z,2.50
2018-01-14T05:03:25.099Z,2.48
2018-01-14T05:05:53.429Z,2.36
2018-01-14T05:08:21.742Z,2.16
2018-01-14T05:10:50.086Z,2.40
2018-01-14T05:13:18.415Z,2.48
2018-01-14T05:15:46.764Z,2.54
2018-01-14T05:18:15.091Z,2.37
2018-01-14T05:20:44.191Z,2.04
2018-01-14T05:23:12.502Z,2.07
2018-01-14T05:25:40.824Z,2.03
2018-01-14T05:28:09.153Z,2.13
2018-01-14T05:30:37.499Z,2.25
2018-01-14T05:33:05.828Z,2.30
2018-01-14T05:35:35.508Z,2.37
2018-01-14T05:38:03.826Z,2.60
2018-01-14T05:40:32.146Z,2.28
2018-01-14T05:43:01.230Z,2.26
2018-01-14T05:45:29.573Z,2.03
2018-01-14T05:47:57.921Z,2.19
2018-01-14T05:50:26.250Z,2.06
2018-01-14T05:52:55.499Z,2.12
2018-01-14T05:55:23.840Z,2.15
2018-01-14T05:57:52.941Z,2.21
2018-01-14T06:00:22.050Z,2.29
2018-01-14T06:02:50.390Z,2.23
2018-01-14T06:05:18.729Z,2.37
2018-01-14T06:07:47.074Z,2.29
2018-01-14T06:10:15.387Z,2.18
2018-01-14T06:12:43.722Z,2.44
2018-01-14T06:15:12.817Z,2.42
2018-01-14T06:17:41.144Z,2.49
2018-01-14T06:20:09.468Z,2.70
2018-01-14T06:22:38.596Z,2.74
2018-01-14T06:25:06.929Z,2.36
2018-01-14T06:27:35.266Z,2.18
2018-01-14T06:30:03.593Z,2.18
2018-01-14T06:32:32.700Z,2.01
2018-01-14T06:35:01.042Z,1.96
2018-01-14T06:37:30.401Z,2.35
2018-01-14T06:39:58.731Z,2.43
2018-01-14T06:42:27.052Z,2.32
2018-01-14T06:44:55.397Z,2.16
2018-01-14T06:47:24.486Z,2.44
2018-01-14T06:49:52.865Z,2.49
2018-01-14T06:52:21.427Z,2.44
2018-01-14T06:54:49.750Z,2.26
2018-01-14T06:57:18.070Z,2.40
2018-01-14T06:59:46.419Z,2.57
2018-01-14T07:02:14.758Z,2.68
2018-01-14T07:04:43.120Z,2.36
2018-01-14T07:07:11.457Z,2.47
2018-01-14T07:09:39.778Z,2.38
2018-01-14T07:12:08.113Z,2.19
2018-01-14T07:14:36.444Z,2.49
2018-01-14T07:17:04.808Z,2.42
2018-01-14T07:19:33.152Z,2.34
2018-01-14T07:22:01.488Z,2.54
2018-01-14T07:24:29.822Z,2.38
2018-01-14T07:26:58.156Z,2.38
2018-01-14T07:29:26.493Z,2.60
2018-01-14T07:31:55.679Z,2.58
2018-01-14T07:34:24.156Z,2.61
2018-01-14T07:36:52.474Z,2.74
2018-01-14T07:39:20.812Z,2.70
2018-01-14T07:41:49.165Z,2.43
2018-01-14T07:44:17.482Z,2.32
2018-01-14T07:46:45.835Z,2.38
2018-01-14T07:49:14.148Z,2.32
2018-01-14T07:51:42.494Z,2.08
2018-01-14T07:54:10.815Z,1.98
2018-01-14T07:56:39.157Z,2.17
2018-01-14T07:59:08.436Z,2.25
2018-01-14T08:01:36.755Z,2.35
2018-01-14T08:04:05.070Z,2.51
2018-01-14T08:06:33.385Z,2.19
2018-01-14T08:09:01.709Z,2.36
2018-01-14T08:11:30.031Z,2.41
2018-01-14T08:13:58.359Z,2.60
2018-01-14T08:16:26.687Z,2.65
2018-01-14T08:18:55.010Z,2.60
2018-01-14T08:21:24.120Z,2.77
2018-01-14T08:23:52.502Z,2.77
2018-01-14T08:26:20.834Z,2.75
2018-01-14T08:28:49.169Z,2.49
2018-01-14T08:31:17.511Z,2.64
2018-01-14T08:33:46.618Z,2.71
2018-01-14T08:36:14.938Z,2.46
2018-01-14T08:38:43.249Z,2.25
2018-01-14T08:41:12.383Z,2.17
2018-01-14T08:43:40.703Z,2.50
2018-01-14T08:46:09.047Z,2.43
2018-01-14T08:48:37.370Z,2.45
2018-01-14T08:51:05.713Z,2.40
2018-01-14T08:53:34.035Z,2.56
2018-01-14T08:56:02.376Z,2.37
2018-01-14T08:58:30.718Z,2.38
2018-01-14T09:00:59.076Z,2.59
2018-01-14T09:03:27.412Z,2.66
2018-01-14T09:05:55.750Z,2.56
2018-01-14T09:08:24.080Z,2.73
2018-01-14T09:10:52.398Z,2.67
2018-01-14T09:13:21.297Z,2.63
2018-01-14T09:15:49.622Z,2.87
2018-01-14T09:18:17.946Z,3.21
2018-01-14T09:20:47.759Z,3.38
2018-01-14T09:23:16.092Z,3.57
2018-01-14T09:25:44.439Z,3.53
2018-01-14T09:28:12.783Z,3.43
2018-01-14T09:31:07.666Z,3.62
2018-01-14T09:33:36.001Z,3.56
2018-01-14T09:36:04.322Z,3.61
2018-01-14T09:38:33.775Z,3.46
2018-01-14T09:41:02.130Z,3.61
2018-01-14T09:43:30.451Z,3.77
2018-01-14T09:45:58.811Z,3.81
2018-01-14T09:48:27.833Z,3.90
2018-01-14T09:50:57.682Z,3.84
2018-01-14T09:53:26.010Z,3.79
2018-01-14T09:55:54.374Z,3.95
2018-01-14T09:58:22.712Z,4.24
2018-01-14T10:00:51.812Z,4.32
2018-01-14T10:03:20.139Z,4.41
2018-01-14T10:05:48.478Z,4.50
2018-01-14T10:08:16.802Z,4.55
2018-01-14T10:10:45.122Z,4.76
2018-01-14T10:13:13.460Z,4.37
2018-01-14T10:15:41.794Z,4.32
2018-01-14T10:18:10.766Z,4.16
2018-01-14T10:20:39.097Z,4.30
2018-01-14T10:23:07.449Z,4.40
2018-01-14T10:25:35.773Z,4.51
2018-01-14T10:28:04.583Z,4.66
2018-01-14T10:30:32.921Z,4.63
2018-01-14T10:33:01.244Z,4.59
2018-01-14T10:35:30.333Z,4.75
2018-01-14T10:37:58.660Z,4.95
2018-01-14T10:40:26.992Z,4.87
2018-01-14T10:42:56.086Z,4.88
2018-01-14T10:45:24.403Z,4.87
2018-01-14T10:47:52.740Z,4.61
2018-01-14T10:50:21.850Z,4.57
2018-01-14T10:52:50.203Z,4.62
2018-01-14T10:55:19.370Z,4.54
2018-01-14T10:57:47.709Z,4.55
2018-01-14T11:00:16.053Z,4.65
2018-01-14T11:02:44.384Z,4.65
2018-01-14T11:05:12.731Z,4.75
2018-01-14T11:07:41.064Z,4.95
2018-01-14T11:10:09.388Z,5.08
2018-01-14T11:12:38.482Z,5.46
2018-01-14T11:15:06.827Z,5.69
2018-01-14T11:17:35.164Z,5.83
2018-01-14T11:20:03.513Z,6.05
2018-01-14T11:22:32.642Z,6.10
2018-01-14T11:25:00.980Z,6.12
2018-01-14T11:27:29.312Z,6.35
2018-01-14T11:30:10.645Z,6.66
2018-01-14T11:32:38.966Z,6.79
2018-01-14T11:35:07.312Z,6.68
2018-01-14T11:37:35.651Z,6.09
2018-01-14T11:40:04.777Z,6.20
2018-01-14T11:42:33.114Z,6.46
2018-01-14T11:45:01.457Z,7.02
2018-01-14T11:47:29.788Z,7.12
2018-01-14T11:49:58.108Z,6.47
2018-01-14T11:52:26.423Z,6.71
2018-01-14T11:54:54.742Z,6.98
2018-01-14T11:57:23.835Z,7.23
2018-01-14T11:59:52.159Z,7.09
2018-01-14T12:02:20.478Z,7.16
2018-01-14T12:04:48.821Z,7.42
2018-01-14T12:07:17.138Z,7.34
2018-01-14T12:09:46.267Z,7.60
2018-01-14T12:12:14.614Z,6.94
2018-01-14T12:14:42.953Z,6.90
2018-01-14T12:17:11.292Z,7.44
2018-01-14T12:19:39.633Z,7.62
2018-01-14T12:22:08.732Z,7.80
2018-01-14T12:24:37.054Z,8.03
2018-01-14T12:27:05.370Z,8.43
2018-01-14T12:29:33.686Z,8.28
2018-01-14T12:32:02.020Z,8.33
2018-01-14T12:34:40.118Z,8.34
2018-01-14T12:37:08.462Z,7.97
2018-01-14T12:39:36.848Z,8.28
2018-01-14T12:42:05.173Z,8.45
2018-01-14T12:44:34.280Z,8.55
2018-01-14T12:47:03.614Z,8.71
2018-01-14T12:49:33.490Z,8.71
2018-01-14T12:52:01.840Z,8.35
2018-01-14T12:54:30.157Z,8.76
2018-01-14T12:56:59.246Z,8.52
2018-01-14T12:59:28.346Z,7.91
2018-01-14T13:01:56.701Z,7.97
2018-01-14T13:04:25.036Z,8.47
2018-01-14T13:06:53.355Z,8.67
2018-01-14T13:09:21.684Z,9.10
2018-01-14T13:11:50.016Z,8.82
2018-01-14T13:14:18.359Z,8.91
2018-01-14T13:16:46.692Z,9.10
2018-01-14T13:19:15.043Z,9.19
2018-01-14T13:21:43.380Z,9.38
2018-01-14T13:24:11.711Z,9.74
2018-01-14T13:26:40.314Z,9.16
2018-01-14T13:29:08.650Z,8.53
2018-01-14T13:31:36.981Z,8.72
2018-01-14T13:34:05.322Z,9.00
2018-01-14T13:36:33.650Z,9.44
2018-01-14T13:39:01.992Z,9.76
2018-01-14T13:41:31.100Z,9.62
2018-01-14T13:43:59.434Z,9.64
2018-01-14T13:46:27.780Z,9.52
2018-01-14T13:48:56.094Z,9.72
2018-01-14T13:51:24.454Z,9.81
2018-01-14T13:53:52.814Z,9.53
2018-01-14T13:56:21.169Z,9.21
2018-01-14T13:58:49.528Z,9.48
2018-01-14T14:01:18.619Z,9.46
2018-01-14T14:03:47.743Z,9.77
2018-01-14T14:06:16.125Z,9.16
2018-01-14T14:08:44.516Z,9.70
2018-01-14T14:11:12.940Z,9.52
2018-01-14T14:13:42.160Z,9.65
2018-01-14T14:16:10.655Z,9.10
2018-01-14T14:18:39.602Z,9.53
2018-01-14T14:21:10.211Z,9.44
2018-01-14T14:23:39.295Z,8.45
2018-01-14T14:26:08.415Z,9.14
2018-01-14T14:28:36.897Z,9.17
2018-01-14T14:31:05.346Z,9.19
2018-01-14T14:33:33.720Z,9.40
2018-01-14T14:36:02.058Z,9.72
2018-01-14T14:38:30.422Z,9.28
2018-01-14T14:40:58.782Z,8.69
2018-01-14T14:43:27.129Z,8.86
2018-01-14T14:45:55.455Z,9.12
2018-01-14T14:48:23.902Z,8.99
2018-01-14T14:50:52.331Z,8.87
2018-01-14T14:53:20.873Z,8.80
2018-01-14T14:55:49.354Z,9.13
2018-01-14T14:58:18.018Z,9.31
2018-01-14T15:00:46.523Z,9.18
2018-01-14T15:03:14.995Z,9.10
2018-01-14T15:05:43.491Z,8.92
2018-01-14T15:08:12.717Z,8.30
2018-01-14T15:10:42.129Z,7.94
2018-01-14T15:13:11.731Z,7.82
2018-01-14T15:15:41.349Z,7.49
2018-01-14T15:18:10.905Z,7.46
2018-01-14T15:20:41.137Z,7.10
2018-01-14T15:23:10.202Z,6.60
2018-01-14T15:25:39.306Z,6.51
2018-01-14T15:28:08.286Z,6.23
2018-01-14T15:30:38.249Z,5.82
2018-01-14T15:33:07.513Z,5.76
2018-01-14T15:35:36.971Z,5.66
2018-01-14T15:38:06.035Z,5.56
2018-01-14T15:40:35.163Z,5.41
2018-01-14T15:43:04.828Z,5.23
2018-01-14T15:45:34.643Z,4.87
2018-01-14T15:48:04.421Z,4.42
2018-01-14T15:50:33.948Z,4.45
2018-01-14T15:53:04.473Z,4.38
2018-01-14T15:55:34.262Z,4.29
2018-01-14T15:58:04.736Z,4.15
2018-01-14T16:00:34.526Z,3.90
2018-01-14T16:03:04.332Z,3.89
2018-01-14T16:05:34.147Z,3.71
2018-01-14T16:08:04.293Z,3.87
2018-01-14T16:10:34.131Z,3.81
2018-01-14T16:13:03.844Z,3.85
2018-01-14T16:15:33.665Z,3.66
2018-01-14T16:18:03.562Z,3.66
2018-01-14T16:20:33.389Z,3.76
2018-01-14T16:23:03.240Z,3.77
2018-01-14T16:25:33.084Z,3.71
2018-01-14T16:28:02.971Z,3.88
2018-01-14T16:30:33.067Z,3.92
2018-01-14T16:33:03.990Z,4.03
2018-01-14T16:35:33.831Z,4.01
2018-01-14T16:38:03.693Z,4.06
2018-01-14T16:40:33.613Z,4.06
2018-01-14T16:43:04.354Z,4.05
2018-01-14T16:45:34.250Z,4.03
2018-01-14T16:48:04.093Z,4.02
2018-01-14T16:50:34.700Z,4.00
2018-01-14T16:53:04.790Z,3.94
2018-01-14T16:55:34.713Z,3.95
2018-01-14T16:58:05.540Z,3.91
2018-01-14T17:00:35.456Z,3.82
2018-01-14T17:03:05.589Z,3.76
2018-01-14T17:05:36.395Z,3.66
2018-01-14T17:08:06.174Z,3.54
2018-01-14T17:10:35.958Z,3.51
2018-01-14T17:13:05.726Z,3.50
2018-01-14T17:15:35.878Z,3.39
2018-01-14T17:18:05.730Z,3.42
2018-01-14T17:20:35.618Z,3.41
2018-01-14T17:23:06.355Z,3.38
2018-01-14T17:25:36.229Z,3.27
2018-01-14T17:28:06.269Z,3.19
2018-01-14T17:30:36.635Z,3.14
2018-01-14T17:33:06.527Z,3.15
2018-01-14T17:35:36.385Z,3.08
2018-01-14T17:38:06.256Z,2.99
2018-01-14T17:40:36.120Z,2.88
2018-01-14T17:43:07.622Z,2.82
2018-01-14T17:45:37.614Z,2.74
2018-01-14T17:48:07.468Z,2.76
2018-01-14T17:50:38.250Z,2.66
2018-01-14T17:53:08.165Z,2.61
2018-01-14T17:55:38.107Z,2.52
2018-01-14T17:58:08.174Z,2.40
2018-01-14T18:00:38.130Z,2.26
2018-01-14T18:03:08.039Z,2.19
2018-01-14T18:05:37.934Z,2.11
2018-01-14T18:08:07.780Z,2.11
2018-01-14T18:10:37.653Z,2.14
2018-01-14T18:13:07.706Z,2.16
2018-01-14T18:15:38.311Z,2.17
2018-01-14T18:18:08.314Z,2.11
2018-01-14T18:20:38.291Z,2.11
2018-01-14T18:23:08.279Z,2.24
2018-01-14T18:25:38.063Z,2.29
2018-01-14T18:28:07.969Z,2.23
2018-01-14T18:30:38.285Z,2.11
2018-01-14T18:33:08.114Z,1.87
2018-01-14T18:35:38.914Z,1.92
2018-01-14T18:38:08.868Z,1.99
2018-01-14T18:40:38.935Z,2.02
2018-01-14T18:43:08.798Z,2.02
2018-01-14T18:45:55.761Z,2.03
2018-01-14T18:48:25.667Z,2.03
2018-01-14T18:50:57.251Z,1.90
2018-01-14T18:53:27.469Z,1.81
2018-01-14T18:55:57.521Z,1.69
2018-01-14T18:58:27.415Z,1.61
2018-01-14T19:00:57.369Z,1.62
2018-01-14T19:03:28.189Z,1.60
2018-01-14T19:05:58.108Z,1.54
2018-01-14T19:08:28.011Z,1.55
2018-01-14T19:10:59.006Z,1.60
2018-01-14T19:13:29.042Z,1.65
2018-01-14T19:15:58.955Z,1.61
2018-01-14T19:18:28.874Z,1.47
2018-01-14T19:20:58.753Z,1.42
2018-01-14T19:23:28.690Z,1.36
2018-01-14T19:25:58.576Z,1.33
2018-01-14T19:28:29.516Z,1.38
2018-01-14T19:31:00.530Z,1.39
2018-01-14T19:33:30.518Z,1.46
2018-01-14T19:36:00.519Z,1.51
2018-01-14T19:38:31.198Z,1.67
2018-01-14T19:41:01.120Z,1.82
2018-01-14T19:43:30.983Z,1.96
2018-01-14T19:46:01.026Z,1.92
2018-01-14T19:48:31.305Z,1.82
2018-01-14T19:51:01.313Z,1.76
2018-01-14T19:53:31.680Z,1.61
2018-01-14T19:56:01.810Z,1.58
2018-01-14T19:58:31.765Z,1.64
2018-01-14T20:01:02.638Z,1.49
2018-01-14T20:03:32.630Z,1.51
2018-01-14T20:06:02.557Z,1.47
2018-01-14T20:08:32.551Z,1.47
2018-01-14T20:27:13.904Z,1.52
2018-01-14T20:29:43.813Z,1.56
2018-01-14T20:32:15.014Z,1.72
2018-01-14T20:34:44.888Z,1.85
2018-01-14T20:37:14.779Z,2.02
2018-01-14T20:39:44.658Z,2.02
2018-01-14T20:42:14.593Z,2.08
2018-01-14T20:44:49.943Z,2.12
2018-01-14T20:47:20.726Z,2.14
2018-01-14T20:49:50.666Z,2.08
2018-01-14T20:52:20.584Z,2.10
2018-01-14T20:54:50.991Z,2.00
2018-01-14T20:57:20.858Z,2.00
2018-01-14T20:59:50.821Z,1.97
2018-01-14T21:02:20.840Z,2.04
2018-01-14T21:04:50.840Z,2.07
2018-01-14T21:07:21.546Z,2.03
2018-01-14T21:09:51.483Z,2.01
2018-01-14T21:12:21.447Z,2.01
2018-01-14T21:14:52.098Z,1.96
2018-01-14T21:17:22.012Z,1.80
2018-01-14T21:19:52.604Z,1.84
2018-01-14T21:22:22.969Z,1.76
2018-01-14T21:24:52.747Z,1.71
2018-01-14T21:27:23.037Z,1.77
2018-01-14T21:29:52.924Z,1.72
2018-01-14T21:32:23.924Z,1.70
2018-01-14T21:34:53.896Z,1.62
2018-01-14T21:37:25.226Z,1.63
2018-01-14T21:39:55.548Z,1.56
2018-01-14T21:42:25.478Z,1.52
2018-01-14T21:44:55.417Z,1.47
2018-01-14T21:47:25.303Z,1.35
2018-01-14T21:49:55.631Z,1.30
2018-01-14T21:52:25.535Z,1.20
2018-01-14T21:54:55.439Z,1.10
2018-01-14T21:57:25.329Z,0.98
2018-01-14T21:59:55.217Z,0.87
2018-01-14T22:02:25.151Z,0.70
2018-01-14T22:04:55.048Z,0.63
2018-01-14T22:07:24.912Z,0.54
2018-01-14T22:09:55.446Z,0.53
2018-01-14T22:12:25.269Z,0.48
2018-01-14T22:14:55.224Z,0.43
2018-01-14T22:17:24.997Z,0.34
2018-01-14T22:19:55.629Z,0.34
2018-01-14T22:22:25.441Z,0.32
2018-01-14T22:24:55.283Z,0.30
2018-01-14T22:27:25.198Z,0.22
2018-01-14T22:29:55.336Z,0.05
2018-01-14T22:32:24.704Z,0.04
2018-01-14T22:34:53.244Z,-0.02
2018-01-14T22:37:21.684Z,-0.01
2018-01-14T22:39:50.803Z,0.03
2018-01-14T22:42:19.152Z,0.11
2018-01-14T22:44:48.493Z,0.23
2018-01-14T22:47:16.836Z,0.30
2018-01-14T22:49:45.176Z,0.28
2018-01-14T22:52:13.498Z,0.26
2018-01-14T22:54:42.630Z,0.28
2018-01-14T22:57:10.973Z,0.26
2018-01-14T22:59:39.325Z,0.30
2018-01-14T23:02:07.677Z,0.34
2018-01-14T23:04:36.262Z,0.42
2018-01-14T23:07:04.604Z,0.42
2018-01-14T23:09:32.934Z,0.49
2018-01-14T23:12:01.259Z,0.58
2018-01-14T23:14:29.601Z,0.60
2018-01-14T23:16:57.932Z,0.64
2018-01-14T23:19:26.256Z,0.68
2018-01-14T23:21:54.607Z,0.70
2018-01-14T23:24:22.953Z,0.78
2018-01-14T23:26:51.272Z,0.90
2018-01-14T23:29:19.604Z,0.88
2018-01-14T23:31:47.926Z,0.96
2018-01-14T23:34:16.270Z,0.92
2018-01-14T23:36:44.609Z,1.06
2018-01-14T23:39:12.942Z,1.18
2018-01-14T23:41:41.284Z,1.25
2018-01-14T23:44:11.437Z,1.25
2018-01-14T23:46:41.361Z,1.20
2018-01-14T23:49:09.708Z,1.37
2018-01-14T23:51:38.060Z,1.48
2018-01-14T23:54:06.393Z,1.48
2018-01-14T23:56:34.729Z,1.57
2018-01-14T23:59:03.820Z,1.58
